ADDS METAR Data INFO
IDs: Format: Raw Decoded Include TAF

Data at: 0214 UTC 14 Dec 2017

KRZT 140155Z AUTO 24014G21KT 10SM OVC050 04/M10 A2942 RMK AO2
KRZT 140135Z AUTO 23008KT 10SM OVC050 02/M11 A2942 RMK AO2
KRZT 140115Z AUTO 20005KT 10SM OVC050 00/M11 A2943 RMK AO2
KRZT 140055Z AUTO 20005KT 10SM BKN050 BKN060 OVC075 00/M11 A2945 RMK AO2
KRZT 140035Z AUTO 20005KT 10SM SCT060 BKN065 OVC075 00/M11 A2946 RMK AO2
KRZT 140015Z AUTO 20006KT 10SM OVC060 00/M12 A2947 RMK AO2
KRZT 132355Z AUTO 20004KT 10SM OVC060 00/M12 A2948 RMK AO2
KRZT 132336Z AUTO 22004KT 10SM OVC060 00/M12 A2949 RMK AO2
KRZT 132315Z AUTO 22006KT 10SM SCT023 SCT034 OVC060 00/M12 A2950 RMK AO2
KRZT 132255Z AUTO 23006KT 10SM SCT028 BKN043 BKN060 00/M12 A2952 RMK AO2
KRZT 132235Z AUTO 20007KT 10SM SCT120 00/M12 A2948 RMK AO2
KRZT 132215Z AUTO 20005KT 10SM CLR M01/M12 A2950 RMK AO2
KRZT 132155Z AUTO 20004KT 10SM CLR M01/M12 A2951 RMK AO2
KRZT 132135Z AUTO 19007KT 10SM CLR M01/M12 A2952 RMK AO2
KRZT 132115Z AUTO 20007KT 10SM CLR M01/M12 A2951 RMK AO2
KRZT 132055Z AUTO 18011G19KT 10SM SCT120 M01/M12 A2950 RMK AO2
KRZT 132035Z AUTO 19012G18KT 10SM SCT090 OVC110 M01/M12 A2954 RMK AO2
KRZT 132016Z AUTO 19009G20KT 10SM SCT085 OVC100 M02/M12 A2955 RMK AO2
KRZT 131955Z AUTO 18013G19KT 10SM SCT075 OVC100 M02/M12 A2956 RMK AO2
KRZT 131935Z AUTO 20011G15KT 10SM BKN100 OVC120 M02/M12 A2962 RMK AO2
KRZT 131915Z AUTO 20009G15KT 10SM SCT060 BKN090 OVC110 M02/M12 A2964 RMK AO2
KRZT 131855Z AUTO 18009KT 10SM SCT060 OVC075 M03/M12 A2965 RMK AO2
KRZT 131835Z AUTO 20007KT 10SM OVC075 M02/M12 A2970 RMK AO2
KRZT 131815Z AUTO 19007KT 10SM OVC075 M03/M12 A2971 RMK AO2
KRZT 131755Z AUTO 19008KT 10SM OVC075 M03/M12 A2973 RMK AO2
KRZT 131735Z AUTO 20008KT 10SM OVC075 M03/M13 A2977 RMK AO2
KRZT 131715Z AUTO 21005KT 10SM OVC085 M03/M13 A2978 RMK AO2
KRZT 131655Z AUTO 24007KT 10SM BKN085 BKN120 M03/M13 A2980 RMK AO2
KRZT 131635Z AUTO 23006KT 10SM SCT120 M03/M13 A2983 RMK AO2
KRZT 131615Z AUTO 23010KT 10SM SCT085 SCT120 M03/M14 A2983 RMK AO2
KRZT 131555Z AUTO 23008KT 10SM SCT075 OVC085 M03/M13 A2986 RMK AO2
KRZT 131535Z AUTO 22005KT 10SM OVC085 M05/M13 A2986 RMK AO2
KRZT 131515Z AUTO 21007KT 10SM OVC085 M05/M13 A2987 RMK AO2
KRZT 131455Z AUTO 22005KT 10SM SCT046 SCT060 OVC085 M05/M13 A2989 RMK AO2
KRZT 131435Z AUTO 23005KT 10SM BKN044 BKN060 OVC085 M06/M13 A2990 RMK AO2
KRZT 131416Z AUTO 21006KT 10SM OVC042 M06/M12 A2991 RMK AO2
KRZT 131355Z AUTO 23007KT 10SM OVC042 M06/M12 A2991 RMK AO2
KRZT 131335Z AUTO 24006KT 10SM OVC044 M07/M12 A2992 RMK AO2
KRZT 131315Z AUTO 24004KT 10SM SCT048 OVC085 M07/M12 A2992 RMK AO2
KRZT 131255Z AUTO 24005KT 10SM SCT050 OVC085 M07/M12 A2993 RMK AO2
KRZT 131235Z AUTO 24004KT 10SM BKN060 OVC095 M07/M12 A2993 RMK AO2
KRZT 131215Z AUTO 25004KT 10SM OVC060 M07/M12 A2994 RMK AO2
KRZT 131155Z AUTO 26006KT 10SM OVC060 M07/M12 A2995 RMK AO2
KRZT 131135Z AUTO 27006KT 10SM OVC070 M07/M12 A2995 RMK AO2
KRZT 131115Z AUTO 26006KT 10SM OVC070 M07/M13 A2994 RMK AO2
KRZT 131055Z AUTO 27004KT 10SM BKN070 M08/M13 A2995 RMK AO2
KRZT 131035Z AUTO 28004KT 10SM CLR M08/M13 A2995 RMK AO2
KRZT 131015Z AUTO 28006KT 10SM CLR M08/M13 A2994 RMK AO2
KRZT 130955Z AUTO 28006KT 10SM CLR M08/M13 A2994 RMK AO2
KRZT 130935Z AUTO 29005KT 10SM CLR M08/M13 A2995 RMK AO2
KRZT 130915Z AUTO 29007KT 10SM SCT044 M08/M13 A2995 RMK AO2
KRZT 130855Z AUTO 28006KT 10SM SCT044 M08/M13 A2994 RMK AO2
KRZT 130835Z AUTO 29006KT 10SM BKN044 M07/M13 A2995 RMK AO2
KRZT 130815Z AUTO 30008KT 10SM OVC046 M07/M13 A2995 RMK AO2
KRZT 130755Z AUTO 30007KT 10SM OVC048 M07/M13 A2995 RMK AO2
KRZT 130735Z AUTO 30011G15KT 10SM OVC048 M06/M13 A2995 RMK AO2
KRZT 130715Z AUTO 29010G15KT 10SM OVC048 M06/M13 A2995 RMK AO2
KRZT 130655Z AUTO 29010KT 10SM OVC048 M06/M12 A2994 RMK AO2
KRZT 130635Z AUTO 30011KT 10SM OVC048 M06/M12 A2994 RMK AO2
KRZT 130615Z AUTO 30011KT 10SM OVC050 M06/M12 A2995 RMK AO2
KRZT 130555Z AUTO 29010KT 10SM OVC050 M06/M12 A2995 RMK AO2
KRZT 130535Z AUTO 30009KT 10SM OVC050 M06/M12 A2995 RMK AO2
KRZT 130515Z AUTO 32011KT 10SM OVC050 M06/M12 A2995 RMK AO2
KRZT 130455Z AUTO 30010KT 10SM OVC050 M06/M12 A2996 RMK AO2
KRZT 130435Z AUTO 32012KT 10SM OVC050 M06/M12 A2997 RMK AO2 LTG DSNT E
KRZT 130415Z AUTO 32011G15KT 10SM OVC050 M06/M12 A2997 RMK AO2
KRZT 130355Z AUTO 33008KT 10SM OVC050 M06/M11 A2997 RMK AO2
KRZT 130335Z AUTO 32009G16KT 10SM OVC060 M06/M12 A2997 RMK AO2
KRZT 130315Z AUTO 32012G16KT 10SM OVC060 M06/M12 A2997 RMK AO2 LTG DSNT SE
KRZT 130255Z AUTO 32011G15KT 10SM SCT046 OVC060 M05/M11 A2997 RMK AO2
KRZT 130235Z AUTO 33010G16KT 10SM OVC060 M06/M11 A2997 RMK AO2
KRZT 130215Z AUTO 32010G15KT 10SM OVC060 M06/M11 A2997 RMK AO2
KRZT 130155Z AUTO 33011G17KT 10SM OVC060 M06/M11 A2997 RMK AO2
KRZT 130135Z AUTO 33010KT 10SM OVC060 M06/M11 A2998 RMK AO2
KRZT 130115Z AUTO 32018G22KT 10SM SCT040 OVC060 M05/M11 A2997 RMK AO2
KRZT 130055Z AUTO 32008KT 10SM SCT040 OVC060 M05/M10 A2997 RMK AO2 LTG DSNT SE
KRZT 130035Z AUTO 32013G17KT 10SM OVC060 M05/M10 A2997 RMK AO2 LTG DSNT SE
KRZT 130015Z AUTO 34008G15KT 10SM SCT026 BKN060 OVC070 M06/M09 A2997 RMK AO2
KRZT 122355Z AUTO 35013G17KT 10SM -SN SCT024 SCT045 OVC070 M05/M08 A2996 RMK AO2
KRZT 122335Z AUTO 34010KT 10SM BKN070 M06/M08 A2996 RMK AO2 LTG DSNT SE
KRZT 122315Z AUTO 35010G21KT 7SM -SN SCT020 SCT036 OVC070 M05/M08 A2995 RMK AO2
KRZT 122255Z AUTO 35009G18KT 10SM -SN SCT035 SCT042 OVC070 M05/M08 A2995 RMK AO2
KRZT 122235Z AUTO 32010G18KT 7SM -SN SCT013 BKN043 OVC070 M05/M08 A2994 RMK AO2
KRZT 122215Z AUTO 33010G15KT 10SM SCT034 SCT050 BKN070 M05/M09 A2993 RMK AO2
KRZT 122155Z AUTO 33012G19KT 10SM SCT011 BKN050 OVC070 M05/M09 A2992 RMK AO2
KRZT 122135Z AUTO 33015G21KT 5SM -SN SCT011 SCT021 BKN032 M05/M08 A2992 RMK AO2
KRZT 122115Z AUTO 33010G20KT 1 1/2SM -SN SCT004 BKN031 OVC060 M05/M07 A2992 RMK AO2
KRZT 122055Z AUTO 33011G16KT 10SM SCT034 SCT045 OVC075 M03/M10 A2991 RMK AO2
KRZT 122035Z AUTO 33011G21KT 10SM SCT019 BKN032 OVC075 M04/M11 A2990 RMK AO2 LTG DSNT SE
KRZT 122015Z AUTO 33012G16KT 7SM -SN BKN020 BKN029 OVC055 M03/M10 A2990 RMK AO2
KRZT 121955Z AUTO 35011G18KT 10SM SCT041 OVC065 M03/M12 A2990 RMK AO2
KRZT 121935Z AUTO 34011KT 10SM SCT045 OVC065 M02/M12 A2990 RMK AO2
KRZT 121915Z AUTO 34013G19KT 10SM SCT045 OVC055 M03/M12 A2990 RMK AO2
KRZT 121855Z AUTO 36014G19KT 10SM BKN044 BKN050 OVC065 M02/M12 A2989 RMK AO2
KRZT 121835Z AUTO 01017G21KT 10SM SCT045 BKN055 OVC065 M02/M11 A2989 RMK AO2
KRZT 121815Z AUTO 35015G22KT 10SM OVC065 M02/M12 A2989 RMK AO2
KRZT 121755Z AUTO 33014G24KT 10SM OVC065 M02/M11 A2989 RMK AO2
KRZT 121735Z AUTO 35013G27KT 10SM SCT038 SCT044 OVC065 M02/M11 A2990 RMK AO2
KRZT 121715Z AUTO 36013G21KT 10SM SCT044 OVC065 M02/M10 A2990 RMK AO2
KRZT 121655Z AUTO 34015G21KT 10SM SCT042 OVC065 M02/M10 A2990 RMK AO2
KRZT 121635Z AUTO 36019G25KT 10SM SCT042 OVC065 M02/M11 A2990 RMK AO2
KRZT 121615Z AUTO 36016G24KT 10SM SCT044 BKN065 M01/M09 A2990 RMK AO2
KRZT 121515Z AUTO 34010G18KT 10SM SCT029 BKN047 OVC055 M02/M07 A2988 RMK AO2
KRZT 121455Z AUTO 34013G19KT 10SM -SN BKN027 BKN039 OVC070 M02/M05 A2987 RMK AO2
KRZT 121435Z AUTO 34013G18KT 10SM SCT027 OVC043 M01/M06 A2986 RMK AO2
KRZT 121415Z AUTO 35015G20KT 10SM SCT033 OVC041 M01/M05 A2986 RMK AO2